Piloten Info

Wichtige Hinweise:

  • Tower Frequenz 122,330 kHz - keine Landung ohne Funkkontakt
  • PPR Betrieb
  • Temporäre Hindernisse (Baukräne) nahe dem Flugplatz durch Bauarbeiten entlang der Nürnberger Straße (Östliche Seite).
  • Starts auf RWY 09 sind nicht gestattet. Start generell auf RWY 27. Bei Planung Rückenwinde berücksichtigen!
  • Bei Anflügen auf RWY 27 sind Hindernisse vorhanden, aus diesem Grund die versetzte Schwelle27!
  • Der Flugverein Neumarkt führt seine Starts generell auf RWY 27 und Landungen auf RWY09 durch.
  • Es besteht keine Tankmöglichkeit.

Diese Hinweis sind als Ergänzung / Hilfe zur regulären Flugplanung gedacht.

Auszüge aus AIP VFR ohne Gewähr - es gelten die offiziellen Veröffentlichungen.




Wind Infos (info ohne Gewähr - nicht geeicht)

Wind Speed
Wind Direction


METAR Informationen der nächstgelegenen Flughäfen


EDDN / Flughafen Nürnberg „Albrecht Dürer“

EDDN 220820Z AUTO 19006KT 150V230 9999 -RA FEW015 SCT033 BKN042 08/06 Q1001 NOSIG

ETIC / Fliegerhorst Grafenwöhr AAF

ETIC 220840Z AUTO 19006KT 9999 -RA BKN011 OVC018 08/06 A2955 RMK AO2 SLP014 $

ETIH / Fliegerhorst Hohenfels AAF

ETIH 220810Z AUTO 21008G16KT 9999 -RA OVC013 08/06 A2960 RMK AO2 SLP030 $